Terminal Aerodrome Forecast
Issued by NWS

Home | Current Version | Previous Version | Text Only | Print | Product List | Glossary On
Versions: 1 2 3 4 5 6 7 8 9 10 11 12 13 14 15 16 17 18 19 20
377
FTAK31 PAJN 092334
TAFAJN
TAF
PAJN 092334Z 1000/1024 VRB04KT P6SM BKN200
     FM100200 12010KT P6SM BKN060 BKN100
     FM100900 10012G20KT 4SM -RA BKN025 OVC040 WS020/14035KT
     FM101800 12010KT P6SM -RA SCT025 OVC040=

USA.gov is the U.S. government's official web portal to all federal, state and local government web resources and services.